Accueil
METAR-TAF:

METAR-TAF

Aéroports :

Malé, Hulhule Island, Maldives

Aéroport international de Malé

latitude: 04-12N, longitude: 073-32E, altitude: 2 m

Observation

Le bulletin a été fait il y a 1 heure et 19 minutes, à 15:00 UTC
Vent 7 kt de ouest
Température 29°C
Humidité 74%
Pression 1010 hPa
Visibilité 10 km ou plus
Quelques nuages à une hauteur de 1800 ft, Cumulus congestus.
Nuages épars à une hauteur de 28000 ft

METAR: VRMM 261500Z 26007KT 9999 FEW018TCU SCT280 29/24 Q1010 NOSIG

Heure: 21:19 (16:19 UTC)

Prévision

Le bulletin a été fait il y a 5 heures et 19 minutes, à 11:00 UTC
Prévision valable du 26 à 12 UTC au 27 à 18 UTC
Vent 10 kt de ouest
Visibilité 10 km ou plus
Quelques nuages à une hauteur de 1800 ft
Temporairement
du 26 à 15 UTC au 26 à 21 UTC
Quelques nuages à une hauteur de 1900 ft, Cumulonimbus.

TAF: VRMM 261100Z 2612/2718 27010KT 9999 FEW018 TEMPO 2615/2621 FEW019CB

Observations et prévisions météorologiques de plus de 4000 aéroports (messages METAR et TAF).

Les stations disponibles sont représentées par des disques jaunes et rouges sur la carte.

Passer la souris dessus pour voir le nom de la station.

Cliquer dessus pour voir les observations et prévisions météorologiques.

Pour changer de carte: cliquez sur les boutons verts avec une croix noire pour zoomer, sur le bouton vert avec un tiret pour effectuer un zoom arrière, ou sur les flèches vertes pour les cartes adjacentes.


METAR-TAF: